Point Harbor, North Carolina
Current Conditions -  °F | °C
As of 5:35 PM on Friday 24 Oct 2014 (Local Time) from KFFA Reporting Station
Clear Clear  
Wind Chill: 64°   Ceiling: Unl
Heat Index: 64°   Visibility: 10mi
Dew Point: 50°   Wind: 3mph
Humidity: 62%   Direction: 280°W
Pressure: 29.9"   Gusts: NA
Location:  36.08°N, 75.79°W
Report Text: KFFA 242135Z AUTO 28003KT 10SM CLR 18/10 A2990 RMK AO2 T01760102
Loading
Personal Weather Stations






























Interactive Weather Map
Tropical Storm Tracking
New forecast layout! Learn more

10-Day Weather Forecast

Advertisements
Track Severe Weather on mobile